sensor_id;sensor_type;location;lat;lon;timestamp;P1;durP1;ratioP1;P2;durP2;ratioP2
14251;SDS011;7210;51.502;10.722;2024-01-07T00:02:10;21.47;;;14.07;;
14251;SDS011;7210;51.502;10.722;2024-01-07T00:04:37;20.53;;;14.30;;
14251;SDS011;7210;51.502;10.722;2024-01-07T00:07:05;20.53;;;13.57;;
14251;SDS011;7210;51.502;10.722;2024-01-07T00:09:33;24.23;;;14.77;;
14251;SDS011;7210;51.502;10.722;2024-01-07T00:12:00;21.30;;;14.27;;
14251;SDS011;7210;51.502;10.722;2024-01-07T00:14:27;21.27;;;14.20;;
14251;SDS011;7210;51.502;10.722;2024-01-07T00:16:55;24.43;;;14.97;;
14251;SDS011;7210;51.502;10.722;2024-01-07T00:19:22;22.70;;;15.00;;
14251;SDS011;7210;51.502;10.722;2024-01-07T00:21:49;20.70;;;14.17;;
14251;SDS011;7210;51.502;10.722;2024-01-07T00:24:16;20.63;;;14.13;;
14251;SDS011;7210;51.502;10.722;2024-01-07T00:26:44;20.30;;;13.80;;
14251;SDS011;7210;51.502;10.722;2024-01-07T00:29:11;20.50;;;13.93;;
14251;SDS011;7210;51.502;10.722;2024-01-07T00:31:39;21.27;;;13.43;;
14251;SDS011;7210;51.502;10.722;2024-01-07T00:34:07;16.23;;;12.53;;
14251;SDS011;7210;51.502;10.722;2024-01-07T00:36:34;15.93;;;12.50;;
14251;SDS011;7210;51.502;10.722;2024-01-07T00:39:02;17.57;;;12.33;;
14251;SDS011;7210;51.502;10.722;2024-01-07T00:41:29;16.63;;;11.73;;
14251;SDS011;7210;51.502;10.722;2024-01-07T00:43:56;17.70;;;12.30;;
14251;SDS011;7210;51.502;10.722;2024-01-07T00:46:23;16.13;;;12.37;;
14251;SDS011;7210;51.502;10.722;2024-01-07T00:48:50;18.70;;;12.60;;
14251;SDS011;7210;51.502;10.722;2024-01-07T00:51:19;18.83;;;12.00;;
14251;SDS011;7210;51.502;10.722;2024-01-07T00:53:46;15.07;;;11.83;;
14251;SDS011;7210;51.502;10.722;2024-01-07T00:56:17;14.50;;;11.33;;
14251;SDS011;7210;51.502;10.722;2024-01-07T00:58:44;15.60;;;11.00;;
14251;SDS011;7210;51.502;10.722;2024-01-07T01:01:11;14.60;;;11.13;;
14251;SDS011;7210;51.502;10.722;2024-01-07T01:03:38;15.17;;;11.13;;
14251;SDS011;7210;51.502;10.722;2024-01-07T01:06:06;13.97;;;10.40;;
14251;SDS011;7210;51.502;10.722;2024-01-07T01:08:34;13.20;;;10.57;;
14251;SDS011;7210;51.502;10.722;2024-01-07T01:11:01;13.87;;;10.77;;
14251;SDS011;7210;51.502;10.722;2024-01-07T01:13:28;13.97;;;10.97;;
14251;SDS011;7210;51.502;10.722;2024-01-07T01:15:55;14.37;;;10.50;;
14251;SDS011;7210;51.502;10.722;2024-01-07T01:18:23;14.37;;;11.17;;
14251;SDS011;7210;51.502;10.722;2024-01-07T01:20:53;15.87;;;11.67;;
14251;SDS011;7210;51.502;10.722;2024-01-07T01:23:22;16.43;;;12.27;;
14251;SDS011;7210;51.502;10.722;2024-01-07T01:25:55;14.33;;;11.57;;
14251;SDS011;7210;51.502;10.722;2024-01-07T01:28:22;14.43;;;11.33;;
14251;SDS011;7210;51.502;10.722;2024-01-07T01:30:49;14.37;;;11.20;;
14251;SDS011;7210;51.502;10.722;2024-01-07T01:33:16;15.60;;;10.87;;
14251;SDS011;7210;51.502;10.722;2024-01-07T01:35:43;13.17;;;10.17;;
14251;SDS011;7210;51.502;10.722;2024-01-07T01:38:10;12.97;;;9.63;;
14251;SDS011;7210;51.502;10.722;2024-01-07T01:40:38;12.07;;;9.90;;
14251;SDS011;7210;51.502;10.722;2024-01-07T01:43:07;9.93;;;8.80;;
14251;SDS011;7210;51.502;10.722;2024-01-07T01:45:34;10.83;;;8.90;;
14251;SDS011;7210;51.502;10.722;2024-01-07T01:48:05;11.07;;;8.87;;
14251;SDS011;7210;51.502;10.722;2024-01-07T01:50:33;9.03;;;7.80;;
14251;SDS011;7210;51.502;10.722;2024-01-07T01:53:00;10.30;;;9.20;;
14251;SDS011;7210;51.502;10.722;2024-01-07T01:55:27;9.47;;;7.93;;
14251;SDS011;7210;51.502;10.722;2024-01-07T01:57:59;9.27;;;7.70;;
14251;SDS011;7210;51.502;10.722;2024-01-07T02:00:30;8.77;;;7.63;;
14251;SDS011;7210;51.502;10.722;2024-01-07T02:02:57;10.60;;;8.27;;
14251;SDS011;7210;51.502;10.722;2024-01-07T02:05:26;10.13;;;8.53;;
14251;SDS011;7210;51.502;10.722;2024-01-07T02:07:53;10.77;;;9.23;;
14251;SDS011;7210;51.502;10.722;2024-01-07T02:10:22;11.87;;;9.47;;
14251;SDS011;7210;51.502;10.722;2024-01-07T02:12:49;12.07;;;9.93;;
14251;SDS011;7210;51.502;10.722;2024-01-07T02:15:16;10.90;;;9.63;;
14251;SDS011;7210;51.502;10.722;2024-01-07T02:17:45;11.93;;;9.53;;
14251;SDS011;7210;51.502;10.722;2024-01-07T02:20:12;13.43;;;10.13;;
14251;SDS011;7210;51.502;10.722;2024-01-07T02:22:38;13.53;;;10.80;;
14251;SDS011;7210;51.502;10.722;2024-01-07T02:25:07;14.00;;;10.93;;
14251;SDS011;7210;51.502;10.722;2024-01-07T02:27:35;14.13;;;11.17;;
14251;SDS011;7210;51.502;10.722;2024-01-07T02:30:06;14.57;;;10.80;;
14251;SDS011;7210;51.502;10.722;2024-01-07T02:32:34;12.40;;;10.03;;
14251;SDS011;7210;51.502;10.722;2024-01-07T02:35:03;13.27;;;10.47;;
14251;SDS011;7210;51.502;10.722;2024-01-07T02:37:35;12.10;;;9.77;;
14251;SDS011;7210;51.502;10.722;2024-01-07T02:40:03;11.83;;;9.60;;
14251;SDS011;7210;51.502;10.722;2024-01-07T02:42:33;13.30;;;10.63;;
14251;SDS011;7210;51.502;10.722;2024-01-07T02:45:00;11.23;;;9.40;;
14251;SDS011;7210;51.502;10.722;2024-01-07T02:47:28;9.70;;;8.60;;
14251;SDS011;7210;51.502;10.722;2024-01-07T02:49:55;10.67;;;9.23;;
14251;SDS011;7210;51.502;10.722;2024-01-07T02:52:22;11.40;;;9.53;;
14251;SDS011;7210;51.502;10.722;2024-01-07T02:54:53;10.23;;;8.67;;
14251;SDS011;7210;51.502;10.722;2024-01-07T02:57:20;10.53;;;9.03;;
14251;SDS011;7210;51.502;10.722;2024-01-07T02:59:55;10.67;;;8.53;;
14251;SDS011;7210;51.502;10.722;2024-01-07T03:02:22;10.23;;;8.53;;
14251;SDS011;7210;51.502;10.722;2024-01-07T03:04:49;10.07;;;9.00;;
14251;SDS011;7210;51.502;10.722;2024-01-07T03:07:16;11.40;;;9.37;;
14251;SDS011;7210;51.502;10.722;2024-01-07T03:09:43;11.20;;;9.40;;
14251;SDS011;7210;51.502;10.722;2024-01-07T03:12:10;11.13;;;9.30;;
14251;SDS011;7210;51.502;10.722;2024-01-07T03:14:37;12.23;;;9.87;;
14251;SDS011;7210;51.502;10.722;2024-01-07T03:17:08;11.53;;;9.53;;
14251;SDS011;7210;51.502;10.722;2024-01-07T03:19:37;9.97;;;8.77;;
14251;SDS011;7210;51.502;10.722;2024-01-07T03:22:04;9.50;;;8.30;;
14251;SDS011;7210;51.502;10.722;2024-01-07T03:24:32;10.67;;;8.60;;
14251;SDS011;7210;51.502;10.722;2024-01-07T03:26:59;9.57;;;8.33;;
14251;SDS011;7210;51.502;10.722;2024-01-07T03:29:27;10.50;;;8.43;;
14251;SDS011;7210;51.502;10.722;2024-01-07T03:31:54;9.73;;;7.83;;
14251;SDS011;7210;51.502;10.722;2024-01-07T03:34:22;11.80;;;9.17;;
14251;SDS011;7210;51.502;10.722;2024-01-07T03:36:49;11.53;;;9.10;;
14251;SDS011;7210;51.502;10.722;2024-01-07T03:39:16;10.83;;;8.67;;
14251;SDS011;7210;51.502;10.722;2024-01-07T03:41:43;9.73;;;7.97;;
14251;SDS011;7210;51.502;10.722;2024-01-07T03:44:10;11.37;;;8.87;;
14251;SDS011;7210;51.502;10.722;2024-01-07T03:46:41;11.97;;;8.90;;
14251;SDS011;7210;51.502;10.722;2024-01-07T03:49:11;11.50;;;8.80;;
14251;SDS011;7210;51.502;10.722;2024-01-07T03:51:40;10.80;;;8.63;;
14251;SDS011;7210;51.502;10.722;2024-01-07T03:54:07;9.53;;;8.07;;
14251;SDS011;7210;51.502;10.722;2024-01-07T03:56:34;10.17;;;8.07;;
14251;SDS011;7210;51.502;10.722;2024-01-07T03:59:01;9.33;;;8.27;;
14251;SDS011;7210;51.502;10.722;2024-01-07T04:01:28;8.20;;;6.80;;
14251;SDS011;7210;51.502;10.722;2024-01-07T04:03:55;8.13;;;7.17;;
14251;SDS011;7210;51.502;10.722;2024-01-07T04:06:22;7.40;;;6.60;;
14251;SDS011;7210;51.502;10.722;2024-01-07T04:08:51;7.53;;;6.70;;
14251;SDS011;7210;51.502;10.722;2024-01-07T04:11:18;9.17;;;7.47;;
14251;SDS011;7210;51.502;10.722;2024-01-07T04:13:45;9.10;;;7.33;;
14251;SDS011;7210;51.502;10.722;2024-01-07T04:16:15;8.50;;;7.20;;
14251;SDS011;7210;51.502;10.722;2024-01-07T04:18:53;7.93;;;7.13;;
14251;SDS011;7210;51.502;10.722;2024-01-07T04:21:20;7.83;;;6.80;;
14251;SDS011;7210;51.502;10.722;2024-01-07T04:23:47;7.87;;;6.87;;
14251;SDS011;7210;51.502;10.722;2024-01-07T04:26:16;8.90;;;7.23;;
14251;SDS011;7210;51.502;10.722;2024-01-07T04:28:47;9.50;;;6.97;;
14251;SDS011;7210;51.502;10.722;2024-01-07T04:31:17;10.17;;;7.43;;
14251;SDS011;7210;51.502;10.722;2024-01-07T04:33:47;8.27;;;7.37;;
14251;SDS011;7210;51.502;10.722;2024-01-07T04:36:14;8.53;;;6.97;;
14251;SDS011;7210;51.502;10.722;2024-01-07T04:38:42;8.70;;;7.17;;
14251;SDS011;7210;51.502;10.722;2024-01-07T04:41:09;7.87;;;6.97;;
14251;SDS011;7210;51.502;10.722;2024-01-07T04:43:37;8.67;;;7.13;;
14251;SDS011;7210;51.502;10.722;2024-01-07T04:46:05;8.07;;;7.13;;
14251;SDS011;7210;51.502;10.722;2024-01-07T04:48:32;8.17;;;6.83;;
14251;SDS011;7210;51.502;10.722;2024-01-07T04:51:06;8.53;;;6.63;;
14251;SDS011;7210;51.502;10.722;2024-01-07T04:53:33;8.43;;;6.60;;
14251;SDS011;7210;51.502;10.722;2024-01-07T04:56:00;7.00;;;5.77;;
14251;SDS011;7210;51.502;10.722;2024-01-07T04:58:29;7.00;;;6.10;;
14251;SDS011;7210;51.502;10.722;2024-01-07T05:00:58;6.73;;;5.83;;
14251;SDS011;7210;51.502;10.722;2024-01-07T05:03:25;8.37;;;6.17;;
14251;SDS011;7210;51.502;10.722;2024-01-07T05:05:52;7.23;;;6.00;;
14251;SDS011;7210;51.502;10.722;2024-01-07T05:08:19;6.63;;;5.77;;
14251;SDS011;7210;51.502;10.722;2024-01-07T05:10:46;6.27;;;5.57;;
14251;SDS011;7210;51.502;10.722;2024-01-07T05:13:17;8.70;;;5.80;;
14251;SDS011;7210;51.502;10.722;2024-01-07T05:15:44;5.80;;;5.13;;
14251;SDS011;7210;51.502;10.722;2024-01-07T05:18:19;6.90;;;5.30;;
14251;SDS011;7210;51.502;10.722;2024-01-07T05:20:47;6.33;;;5.73;;
14251;SDS011;7210;51.502;10.722;2024-01-07T05:23:14;6.43;;;5.53;;
14251;SDS011;7210;51.502;10.722;2024-01-07T05:25:42;6.77;;;5.33;;
14251;SDS011;7210;51.502;10.722;2024-01-07T05:28:09;7.33;;;5.53;;
14251;SDS011;7210;51.502;10.722;2024-01-07T05:30:37;6.87;;;5.43;;
14251;SDS011;7210;51.502;10.722;2024-01-07T05:33:05;6.63;;;5.47;;
14251;SDS011;7210;51.502;10.722;2024-01-07T05:35:34;7.83;;;5.77;;
14251;SDS011;7210;51.502;10.722;2024-01-07T05:38:02;6.27;;;5.20;;
14251;SDS011;7210;51.502;10.722;2024-01-07T05:40:29;6.80;;;5.00;;
14251;SDS011;7210;51.502;10.722;2024-01-07T05:42:56;7.67;;;5.57;;
14251;SDS011;7210;51.502;10.722;2024-01-07T05:45:23;7.37;;;5.43;;
14251;SDS011;7210;51.502;10.722;2024-01-07T05:47:50;6.70;;;5.53;;
14251;SDS011;7210;51.502;10.722;2024-01-07T05:50:23;6.93;;;5.23;;
14251;SDS011;7210;51.502;10.722;2024-01-07T05:52:52;6.43;;;5.10;;
14251;SDS011;7210;51.502;10.722;2024-01-07T05:55:20;6.27;;;5.10;;
14251;SDS011;7210;51.502;10.722;2024-01-07T05:57:47;6.10;;;5.27;;
14251;SDS011;7210;51.502;10.722;2024-01-07T06:00:17;7.17;;;5.30;;
14251;SDS011;7210;51.502;10.722;2024-01-07T06:02:48;9.50;;;5.53;;
14251;SDS011;7210;51.502;10.722;2024-01-07T06:05:15;8.33;;;6.07;;
14251;SDS011;7210;51.502;10.722;2024-01-07T06:07:43;6.93;;;5.43;;
14251;SDS011;7210;51.502;10.722;2024-01-07T06:10:12;7.10;;;5.63;;
14251;SDS011;7210;51.502;10.722;2024-01-07T06:12:39;6.63;;;5.10;;
14251;SDS011;7210;51.502;10.722;2024-01-07T06:15:06;7.90;;;5.60;;
14251;SDS011;7210;51.502;10.722;2024-01-07T06:17:35;7.80;;;5.80;;
14251;SDS011;7210;51.502;10.722;2024-01-07T06:20:03;6.43;;;5.70;;
14251;SDS011;7210;51.502;10.722;2024-01-07T06:22:31;8.37;;;5.93;;
14251;SDS011;7210;51.502;10.722;2024-01-07T06:24:59;8.80;;;6.03;;
14251;SDS011;7210;51.502;10.722;2024-01-07T06:27:28;9.23;;;5.33;;
14251;SDS011;7210;51.502;10.722;2024-01-07T06:29:55;8.73;;;5.63;;
14251;SDS011;7210;51.502;10.722;2024-01-07T06:32:22;7.30;;;5.03;;
14251;SDS011;7210;51.502;10.722;2024-01-07T06:34:53;7.40;;;4.90;;
14251;SDS011;7210;51.502;10.722;2024-01-07T06:37:21;8.53;;;5.07;;
14251;SDS011;7210;51.502;10.722;2024-01-07T06:39:48;6.47;;;4.60;;
14251;SDS011;7210;51.502;10.722;2024-01-07T06:42:15;8.13;;;4.70;;
14251;SDS011;7210;51.502;10.722;2024-01-07T06:44:43;5.20;;;4.07;;
14251;SDS011;7210;51.502;10.722;2024-01-07T06:47:10;6.97;;;4.17;;
14251;SDS011;7210;51.502;10.722;2024-01-07T06:49:38;4.90;;;3.83;;
14251;SDS011;7210;51.502;10.722;2024-01-07T06:52:06;5.77;;;3.90;;
14251;SDS011;7210;51.502;10.722;2024-01-07T06:54:33;5.97;;;4.30;;
14251;SDS011;7210;51.502;10.722;2024-01-07T06:57:00;6.43;;;4.40;;
14251;SDS011;7210;51.502;10.722;2024-01-07T06:59:27;5.57;;;3.97;;
14251;SDS011;7210;51.502;10.722;2024-01-07T07:01:56;5.20;;;4.30;;
14251;SDS011;7210;51.502;10.722;2024-01-07T07:04:23;5.67;;;3.97;;
14251;SDS011;7210;51.502;10.722;2024-01-07T07:06:50;4.73;;;3.57;;
14251;SDS011;7210;51.502;10.722;2024-01-07T07:09:17;4.77;;;3.73;;
14251;SDS011;7210;51.502;10.722;2024-01-07T07:11:44;6.77;;;4.13;;
14251;SDS011;7210;51.502;10.722;2024-01-07T07:14:11;5.20;;;3.87;;
14251;SDS011;7210;51.502;10.722;2024-01-07T07:16:38;5.87;;;3.63;;
14251;SDS011;7210;51.502;10.722;2024-01-07T07:19:07;4.90;;;3.33;;
14251;SDS011;7210;51.502;10.722;2024-01-07T07:21:34;5.20;;;3.73;;
14251;SDS011;7210;51.502;10.722;2024-01-07T07:24:01;4.07;;;3.67;;
14251;SDS011;7210;51.502;10.722;2024-01-07T07:26:28;4.57;;;4.00;;
14251;SDS011;7210;51.502;10.722;2024-01-07T07:28:55;4.73;;;4.00;;
14251;SDS011;7210;51.502;10.722;2024-01-07T07:31:22;4.13;;;3.53;;
14251;SDS011;7210;51.502;10.722;2024-01-07T07:33:53;4.37;;;3.50;;
14251;SDS011;7210;51.502;10.722;2024-01-07T07:36:22;6.77;;;5.60;;
14251;SDS011;7210;51.502;10.722;2024-01-07T07:38:49;5.23;;;4.73;;
14251;SDS011;7210;51.502;10.722;2024-01-07T07:41:16;4.70;;;4.20;;
14251;SDS011;7210;51.502;10.722;2024-01-07T07:43:44;8.57;;;6.07;;
14251;SDS011;7210;51.502;10.722;2024-01-07T07:46:11;4.47;;;3.37;;
14251;SDS011;7210;51.502;10.722;2024-01-07T07:48:41;4.83;;;4.17;;
14251;SDS011;7210;51.502;10.722;2024-01-07T07:51:09;4.30;;;3.57;;
14251;SDS011;7210;51.502;10.722;2024-01-07T07:53:38;7.20;;;4.00;;
14251;SDS011;7210;51.502;10.722;2024-01-07T07:56:06;4.37;;;3.27;;
14251;SDS011;7210;51.502;10.722;2024-01-07T07:58:33;4.60;;;3.20;;
14251;SDS011;7210;51.502;10.722;2024-01-07T08:01:01;3.70;;;3.10;;
14251;SDS011;7210;51.502;10.722;2024-01-07T08:03:28;4.70;;;3.20;;
14251;SDS011;7210;51.502;10.722;2024-01-07T08:05:57;5.00;;;3.33;;
14251;SDS011;7210;51.502;10.722;2024-01-07T08:08:27;3.10;;;2.80;;
14251;SDS011;7210;51.502;10.722;2024-01-07T08:10:55;4.07;;;3.37;;
14251;SDS011;7210;51.502;10.722;2024-01-07T08:13:22;3.87;;;3.10;;
14251;SDS011;7210;51.502;10.722;2024-01-07T08:15:49;4.23;;;3.00;;
14251;SDS011;7210;51.502;10.722;2024-01-07T08:18:17;4.80;;;3.50;;
14251;SDS011;7210;51.502;10.722;2024-01-07T08:20:44;5.50;;;3.10;;
14251;SDS011;7210;51.502;10.722;2024-01-07T08:23:11;3.87;;;3.07;;
14251;SDS011;7210;51.502;10.722;2024-01-07T08:25:41;3.33;;;2.80;;
14251;SDS011;7210;51.502;10.722;2024-01-07T08:28:11;3.97;;;2.97;;
14251;SDS011;7210;51.502;10.722;2024-01-07T08:30:38;3.97;;;3.23;;
14251;SDS011;7210;51.502;10.722;2024-01-07T08:33:11;6.53;;;3.37;;
14251;SDS011;7210;51.502;10.722;2024-01-07T08:35:39;3.83;;;3.40;;
14251;SDS011;7210;51.502;10.722;2024-01-07T08:38:06;5.80;;;3.60;;
14251;SDS011;7210;51.502;10.722;2024-01-07T08:40:33;3.83;;;3.17;;
14251;SDS011;7210;51.502;10.722;2024-01-07T08:43:05;5.63;;;3.27;;
14251;SDS011;7210;51.502;10.722;2024-01-07T08:45:34;3.77;;;3.03;;
14251;SDS011;7210;51.502;10.722;2024-01-07T08:48:01;4.87;;;3.50;;
14251;SDS011;7210;51.502;10.722;2024-01-07T08:50:29;3.77;;;3.27;;
14251;SDS011;7210;51.502;10.722;2024-01-07T08:52:57;3.00;;;2.70;;
14251;SDS011;7210;51.502;10.722;2024-01-07T08:55:24;3.20;;;2.90;;
14251;SDS011;7210;51.502;10.722;2024-01-07T08:57:52;3.03;;;2.73;;
14251;SDS011;7210;51.502;10.722;2024-01-07T09:00:19;3.67;;;3.37;;
14251;SDS011;7210;51.502;10.722;2024-01-07T09:02:52;3.50;;;3.20;;
14251;SDS011;7210;51.502;10.722;2024-01-07T09:05:19;4.05;;;3.40;;
14251;SDS011;7210;51.502;10.722;2024-01-07T09:07:47;4.07;;;3.23;;
14251;SDS011;7210;51.502;10.722;2024-01-07T09:10:18;3.40;;;2.70;;
14251;SDS011;7210;51.502;10.722;2024-01-07T09:12:46;6.67;;;3.20;;
14251;SDS011;7210;51.502;10.722;2024-01-07T09:15:14;3.80;;;2.90;;
14251;SDS011;7210;51.502;10.722;2024-01-07T09:17:47;3.33;;;2.53;;
14251;SDS011;7210;51.502;10.722;2024-01-07T09:20:19;3.63;;;3.03;;
14251;SDS011;7210;51.502;10.722;2024-01-07T09:22:54;3.10;;;2.80;;
14251;SDS011;7210;51.502;10.722;2024-01-07T09:31:14;9.67;;;5.60;;
14251;SDS011;7210;51.502;10.722;2024-01-07T09:40:12;78.63;;;36.53;;
14251;SDS011;7210;51.502;10.722;2024-01-07T09:49:00;2.30;;;2.10;;
14251;SDS011;7210;51.502;10.722;2024-01-07T09:51:36;2.17;;;1.97;;
14251;SDS011;7210;51.502;10.722;2024-01-07T09:54:07;3.57;;;1.70;;
14251;SDS011;7210;51.502;10.722;2024-01-07T09:56:42;2.80;;;2.07;;
14251;SDS011;7210;51.502;10.722;2024-01-07T10:02:54;4.03;;;3.00;;
14251;SDS011;7210;51.502;10.722;2024-01-07T10:05:21;6.17;;;4.37;;
14251;SDS011;7210;51.502;10.722;2024-01-07T10:08:06;3.93;;;1.90;;
14251;SDS011;7210;51.502;10.722;2024-01-07T10:10:36;2.70;;;2.23;;
14251;SDS011;7210;51.502;10.722;2024-01-07T10:13:24;3.00;;;2.70;;
14251;SDS011;7210;51.502;10.722;2024-01-07T10:15:51;2.27;;;1.90;;
14251;SDS011;7210;51.502;10.722;2024-01-07T10:18:18;1.80;;;1.70;;
14251;SDS011;7210;51.502;10.722;2024-01-07T10:23:38;4.70;;;2.73;;
14251;SDS011;7210;51.502;10.722;2024-01-07T10:29:12;17.57;;;10.03;;
14251;SDS011;7210;51.502;10.722;2024-01-07T10:31:48;3.33;;;2.60;;
14251;SDS011;7210;51.502;10.722;2024-01-07T10:37:24;6.47;;;3.70;;
14251;SDS011;7210;51.502;10.722;2024-01-07T10:40:00;4.13;;;3.73;;
14251;SDS011;7210;51.502;10.722;2024-01-07T10:42:37;4.77;;;3.63;;
14251;SDS011;7210;51.502;10.722;2024-01-07T10:45:18;4.37;;;2.97;;
14251;SDS011;7210;51.502;10.722;2024-01-07T10:48:00;3.00;;;2.00;;
14251;SDS011;7210;51.502;10.722;2024-01-07T10:50:34;11.97;;;8.33;;
14251;SDS011;7210;51.502;10.722;2024-01-07T10:53:03;5.60;;;3.97;;
14251;SDS011;7210;51.502;10.722;2024-01-07T10:55:33;1.80;;;1.70;;
14251;SDS011;7210;51.502;10.722;2024-01-07T10:58:03;1.77;;;1.67;;
14251;SDS011;7210;51.502;10.722;2024-01-07T11:00:31;4.27;;;3.73;;
14251;SDS011;7210;51.502;10.722;2024-01-07T11:03:02;2.20;;;2.00;;
14251;SDS011;7210;51.502;10.722;2024-01-07T11:05:39;2.73;;;2.07;;
14251;SDS011;7210;51.502;10.722;2024-01-07T11:08:16;2.27;;;1.97;;
14251;SDS011;7210;51.502;10.722;2024-01-07T11:10:53;2.33;;;2.03;;
14251;SDS011;7210;51.502;10.722;2024-01-07T11:13:37;3.50;;;3.13;;
14251;SDS011;7210;51.502;10.722;2024-01-07T11:16:06;10.40;;;7.27;;
14251;SDS011;7210;51.502;10.722;2024-01-07T11:18:38;5.60;;;3.97;;
14251;SDS011;7210;51.502;10.722;2024-01-07T11:21:06;5.93;;;3.70;;
14251;SDS011;7210;51.502;10.722;2024-01-07T11:23:34;5.77;;;4.30;;
14251;SDS011;7210;51.502;10.722;2024-01-07T11:26:04;4.97;;;3.97;;
14251;SDS011;7210;51.502;10.722;2024-01-07T11:28:48;2.73;;;2.50;;
14251;SDS011;7210;51.502;10.722;2024-01-07T11:31:17;3.70;;;3.40;;
14251;SDS011;7210;51.502;10.722;2024-01-07T11:33:47;2.83;;;2.53;;
14251;SDS011;7210;51.502;10.722;2024-01-07T11:36:16;3.03;;;2.17;;
14251;SDS011;7210;51.502;10.722;2024-01-07T11:38:44;4.00;;;2.13;;
14251;SDS011;7210;51.502;10.722;2024-01-07T11:41:13;2.90;;;1.93;;
14251;SDS011;7210;51.502;10.722;2024-01-07T11:43:54;2.13;;;1.93;;
14251;SDS011;7210;51.502;10.722;2024-01-07T11:46:24;2.20;;;2.00;;
14251;SDS011;7210;51.502;10.722;2024-01-07T11:48:54;2.47;;;2.10;;
14251;SDS011;7210;51.502;10.722;2024-01-07T11:51:24;2.13;;;1.93;;
14251;SDS011;7210;51.502;10.722;2024-01-07T11:53:51;2.27;;;2.00;;
14251;SDS011;7210;51.502;10.722;2024-01-07T11:56:19;3.57;;;2.10;;
14251;SDS011;7210;51.502;10.722;2024-01-07T11:58:46;1.83;;;1.73;;
14251;SDS011;7210;51.502;10.722;2024-01-07T12:01:16;2.03;;;1.83;;
14251;SDS011;7210;51.502;10.722;2024-01-07T12:03:44;2.67;;;2.00;;
14251;SDS011;7210;51.502;10.722;2024-01-07T12:06:15;1.97;;;1.80;;
14251;SDS011;7210;51.502;10.722;2024-01-07T12:08:42;2.80;;;2.37;;
14251;SDS011;7210;51.502;10.722;2024-01-07T12:11:11;2.10;;;1.90;;
14251;SDS011;7210;51.502;10.722;2024-01-07T12:13:39;3.50;;;2.53;;
14251;SDS011;7210;51.502;10.722;2024-01-07T12:16:08;3.30;;;2.70;;
14251;SDS011;7210;51.502;10.722;2024-01-07T12:18:38;15.17;;;9.77;;
14251;SDS011;7210;51.502;10.722;2024-01-07T12:21:06;8.43;;;6.40;;
14251;SDS011;7210;51.502;10.722;2024-01-07T12:23:34;4.03;;;3.20;;
14251;SDS011;7210;51.502;10.722;2024-01-07T12:26:06;4.53;;;3.17;;
14251;SDS011;7210;51.502;10.722;2024-01-07T12:28:35;2.73;;;2.37;;
14251;SDS011;7210;51.502;10.722;2024-01-07T12:31:03;2.07;;;1.80;;
14251;SDS011;7210;51.502;10.722;2024-01-07T12:33:31;2.23;;;2.03;;
14251;SDS011;7210;51.502;10.722;2024-01-07T12:35:59;2.53;;;2.00;;
14251;SDS011;7210;51.502;10.722;2024-01-07T12:38:27;2.70;;;2.07;;
14251;SDS011;7210;51.502;10.722;2024-01-07T12:40:54;19.87;;;12.67;;
14251;SDS011;7210;51.502;10.722;2024-01-07T12:43:22;17.60;;;10.43;;
14251;SDS011;7210;51.502;10.722;2024-01-07T12:45:50;12.90;;;7.47;;
14251;SDS011;7210;51.502;10.722;2024-01-07T12:48:20;3.27;;;2.70;;
14251;SDS011;7210;51.502;10.722;2024-01-07T12:50:47;6.40;;;2.83;;
14251;SDS011;7210;51.502;10.722;2024-01-07T12:53:16;3.40;;;2.40;;
14251;SDS011;7210;51.502;10.722;2024-01-07T12:55:43;2.40;;;2.20;;
14251;SDS011;7210;51.502;10.722;2024-01-07T12:58:10;3.73;;;2.30;;
14251;SDS011;7210;51.502;10.722;2024-01-07T13:00:37;2.37;;;2.00;;
14251;SDS011;7210;51.502;10.722;2024-01-07T13:03:05;2.03;;;1.83;;
14251;SDS011;7210;51.502;10.722;2024-01-07T13:05:36;2.80;;;2.17;;
14251;SDS011;7210;51.502;10.722;2024-01-07T13:08:03;2.50;;;2.30;;
14251;SDS011;7210;51.502;10.722;2024-01-07T13:10:32;2.33;;;2.13;;
14251;SDS011;7210;51.502;10.722;2024-01-07T13:12:59;2.50;;;2.30;;
14251;SDS011;7210;51.502;10.722;2024-01-07T13:15:28;4.33;;;2.40;;
14251;SDS011;7210;51.502;10.722;2024-01-07T13:17:56;2.70;;;2.50;;
14251;SDS011;7210;51.502;10.722;2024-01-07T13:20:23;3.03;;;2.40;;
14251;SDS011;7210;51.502;10.722;2024-01-07T13:22:50;3.37;;;2.43;;
14251;SDS011;7210;51.502;10.722;2024-01-07T13:25:18;4.27;;;2.47;;
14251;SDS011;7210;51.502;10.722;2024-01-07T13:27:46;3.00;;;2.43;;
14251;SDS011;7210;51.502;10.722;2024-01-07T13:30:13;2.73;;;2.40;;
14251;SDS011;7210;51.502;10.722;2024-01-07T13:32:41;2.87;;;2.37;;
14251;SDS011;7210;51.502;10.722;2024-01-07T13:35:08;3.73;;;3.00;;
14251;SDS011;7210;51.502;10.722;2024-01-07T13:37:38;3.17;;;2.30;;
14251;SDS011;7210;51.502;10.722;2024-01-07T13:40:07;4.13;;;2.40;;
14251;SDS011;7210;51.502;10.722;2024-01-07T13:42:36;3.37;;;2.70;;
14251;SDS011;7210;51.502;10.722;2024-01-07T13:45:05;4.63;;;2.63;;
14251;SDS011;7210;51.502;10.722;2024-01-07T13:47:32;5.53;;;3.60;;
14251;SDS011;7210;51.502;10.722;2024-01-07T13:50:00;3.80;;;3.20;;
14251;SDS011;7210;51.502;10.722;2024-01-07T13:52:28;3.00;;;2.70;;
14251;SDS011;7210;51.502;10.722;2024-01-07T13:54:56;3.47;;;2.77;;
14251;SDS011;7210;51.502;10.722;2024-01-07T13:57:23;3.70;;;2.80;;
14251;SDS011;7210;51.502;10.722;2024-01-07T13:59:50;3.37;;;2.90;;
14251;SDS011;7210;51.502;10.722;2024-01-07T14:02:18;3.37;;;2.60;;
14251;SDS011;7210;51.502;10.722;2024-01-07T14:04:47;2.90;;;2.60;;
14251;SDS011;7210;51.502;10.722;2024-01-07T14:07:16;3.47;;;2.60;;
14251;SDS011;7210;51.502;10.722;2024-01-07T14:09:43;2.97;;;2.67;;
14251;SDS011;7210;51.502;10.722;2024-01-07T14:12:11;4.07;;;3.20;;
14251;SDS011;7210;51.502;10.722;2024-01-07T14:14:38;4.47;;;3.20;;
14251;SDS011;7210;51.502;10.722;2024-01-07T14:17:05;4.00;;;3.60;;
14251;SDS011;7210;51.502;10.722;2024-01-07T14:19:33;4.73;;;4.17;;
14251;SDS011;7210;51.502;10.722;2024-01-07T14:22:00;5.90;;;4.47;;
14251;SDS011;7210;51.502;10.722;2024-01-07T14:24:27;5.53;;;4.03;;
14251;SDS011;7210;51.502;10.722;2024-01-07T14:26:55;14.60;;;10.57;;
14251;SDS011;7210;51.502;10.722;2024-01-07T14:29:22;9.33;;;6.97;;
14251;SDS011;7210;51.502;10.722;2024-01-07T14:31:49;5.90;;;4.87;;
14251;SDS011;7210;51.502;10.722;2024-01-07T14:34:16;5.37;;;4.43;;
14251;SDS011;7210;51.502;10.722;2024-01-07T14:36:44;6.20;;;5.10;;
14251;SDS011;7210;51.502;10.722;2024-01-07T14:39:11;4.23;;;3.13;;
14251;SDS011;7210;51.502;10.722;2024-01-07T14:41:39;4.37;;;2.90;;
14251;SDS011;7210;51.502;10.722;2024-01-07T14:44:07;3.53;;;2.77;;
14251;SDS011;7210;51.502;10.722;2024-01-07T14:46:34;4.50;;;3.73;;
14251;SDS011;7210;51.502;10.722;2024-01-07T14:49:06;3.00;;;2.70;;
14251;SDS011;7210;51.502;10.722;2024-01-07T14:51:36;3.37;;;2.83;;
14251;SDS011;7210;51.502;10.722;2024-01-07T14:54:04;2.80;;;2.37;;
14251;SDS011;7210;51.502;10.722;2024-01-07T14:56:31;3.07;;;2.60;;
14251;SDS011;7210;51.502;10.722;2024-01-07T14:59:00;3.53;;;2.67;;
14251;SDS011;7210;51.502;10.722;2024-01-07T15:01:27;3.80;;;3.00;;
14251;SDS011;7210;51.502;10.722;2024-01-07T15:03:54;3.40;;;3.10;;
14251;SDS011;7210;51.502;10.722;2024-01-07T15:06:21;4.77;;;3.40;;
14251;SDS011;7210;51.502;10.722;2024-01-07T15:08:49;3.60;;;2.80;;
14251;SDS011;7210;51.502;10.722;2024-01-07T15:11:17;3.10;;;2.80;;
14251;SDS011;7210;51.502;10.722;2024-01-07T15:13:45;3.60;;;3.00;;
14251;SDS011;7210;51.502;10.722;2024-01-07T15:16:12;4.53;;;3.47;;
14251;SDS011;7210;51.502;10.722;2024-01-07T15:18:39;3.40;;;3.10;;
14251;SDS011;7210;51.502;10.722;2024-01-07T15:21:06;6.00;;;3.33;;
14251;SDS011;7210;51.502;10.722;2024-01-07T15:23:34;5.23;;;3.97;;